Time;durP1;ratioP1;P1;durP2;ratioP2;P2;SDS_P1;SDS_P2;PMS_P1;PMS_P2;Temp;Humidity;BMP_temperature;BMP_pressure;BME280_temperature;BME280_humidity;BME280_pressure;Samples;Min_cycle;Max_cycle;Signal;HPM_P1;HPM_P2
2022/02/24 00:02:09;;;;;;;3.22;1.98;;;21.70;54.10;;;;;;4970170;28;92496;-83
2022/02/24 00:04:35;;;;;;;7.22;2.50;;;21.70;54.10;;;;;;4969554;28;94367;-85
2022/02/24 00:07:01;;;;;;;5.95;2.75;;;21.70;54.20;;;;;;4969750;28;93696;-85
2022/02/24 00:09:27;;;;;;;5.53;2.92;;;21.60;54.10;;;;;;4969225;28;92027;-84
2022/02/24 00:11:53;;;;;;;6.35;2.80;;;21.60;54.10;;;;;;4969147;28;92580;-85
2022/02/24 00:14:19;;;;;;;4.82;2.53;;;21.60;54.00;;;;;;4967259;28;92979;-82
2022/02/24 00:16:45;;;;;;;4.57;2.58;;;21.60;53.90;;;;;;4968541;28;93045;-83
2022/02/24 00:19:10;;;;;;;4.50;2.50;;;21.60;54.00;;;;;;4969680;28;92383;-84
2022/02/24 00:21:36;;;;;;;5.05;2.50;;;21.60;53.80;;;;;;4969749;28;91849;-85
2022/02/24 00:24:02;;;;;;;6.25;2.70;;;21.60;53.80;;;;;;4968314;28;93525;-84
2022/02/24 00:26:27;;;;;;;3.65;2.20;;;21.60;53.80;;;;;;4968861;28;92289;-85
2022/02/24 00:28:53;;;;;;;4.38;2.45;;;21.60;53.80;;;;;;4969590;28;93842;-84
2022/02/24 00:31:18;;;;;;;4.28;2.58;;;21.60;53.80;;;;;;4969716;28;92707;-84
2022/02/24 00:33:44;;;;;;;5.05;2.47;;;21.60;53.80;;;;;;4967380;28;95816;-85
2022/02/24 00:36:10;;;;;;;5.15;2.40;;;21.60;53.80;;;;;;4967712;28;93096;-85
2022/02/24 00:38:36;;;;;;;4.80;2.60;;;21.60;53.70;;;;;;4969101;28;92596;-82
2022/02/24 00:41:01;;;;;;;4.03;2.40;;;21.60;53.80;;;;;;4969215;28;92150;-84
2022/02/24 00:43:27;;;;;;;3.15;2.20;;;21.50;53.60;;;;;;4968217;28;93135;-83
2022/02/24 00:45:55;;;;;;;3.50;2.28;;;21.50;53.70;;;;;;4967978;28;92477;-85
2022/02/24 00:48:21;;;;;;;3.92;2.40;;;21.50;53.60;;;;;;4967895;28;92855;-85
2022/02/24 00:50:46;;;;;;;2.95;2.05;;;21.60;53.70;;;;;;4968832;28;92161;-84
2022/02/24 00:53:12;;;;;;;5.50;2.95;;;21.50;53.60;;;;;;4968847;28;93386;-83
2022/02/24 00:55:37;;;;;;;3.65;2.33;;;21.50;54.30;;;;;;4969034;28;94223;-84
2022/02/24 00:58:03;;;;;;;5.00;2.35;;;21.50;53.60;;;;;;4969337;28;92599;-83
2022/02/24 01:00:29;;;;;;;4.80;2.60;;;21.50;53.60;;;;;;4968509;28;92052;-83
2022/02/24 01:02:55;;;;;;;4.63;2.50;;;21.50;53.50;;;;;;4968133;28;92587;-84
2022/02/24 01:05:20;;;;;;;5.60;2.80;;;21.50;53.50;;;;;;4968268;28;92648;-83
2022/02/24 01:07:46;;;;;;;4.10;2.47;;;21.50;53.40;;;;;;4969179;28;93422;-85
2022/02/24 01:10:11;;;;;;;4.25;2.67;;;21.50;53.40;;;;;;4968033;28;92299;-84
2022/02/24 01:12:37;;;;;;;5.68;2.55;;;21.50;53.40;;;;;;4968188;28;93195;-85
2022/02/24 01:15:06;;;;;;;5.10;2.60;;;21.50;53.40;;;;;;4967246;28;92510;-83
2022/02/24 01:17:33;;;;;;;4.68;2.65;;;21.50;53.30;;;;;;4968123;28;93256;-84
2022/02/24 01:19:59;;;;;;;2.58;2.00;;;21.40;53.30;;;;;;4968884;28;92897;-85
2022/02/24 01:22:25;;;;;;;4.72;2.72;;;21.50;53.80;;;;;;4968273;28;92653;-83
2022/02/24 01:24:50;;;;;;;3.80;2.10;;;21.40;53.30;;;;;;4967604;28;93013;-83
2022/02/24 01:27:16;;;;;;;3.83;2.15;;;21.40;53.30;;;;;;4968265;28;92611;-84
2022/02/24 01:29:42;;;;;;;5.10;2.28;;;21.50;53.20;;;;;;4968775;28;92648;-84
2022/02/24 01:32:07;;;;;;;4.32;2.20;;;21.40;53.20;;;;;;4968870;28;92626;-84
2022/02/24 01:34:33;;;;;;;3.78;2.38;;;21.40;53.40;;;;;;4966222;28;94416;-81
2022/02/24 01:37:01;;;;;;;3.95;2.17;;;21.40;53.30;;;;;;4968081;28;92115;-85
2022/02/24 01:39:29;;;;;;;3.08;2.13;;;21.40;53.30;;;;;;4966810;28;92558;-84
2022/02/24 01:41:55;;;;;;;4.35;2.50;;;21.40;53.30;;;;;;4967889;28;93383;-85
2022/02/24 01:44:21;;;;;;;4.25;2.30;;;21.40;53.20;;;;;;4968466;28;93132;-84
2022/02/24 01:46:47;;;;;;;2.97;2.20;;;21.40;53.20;;;;;;4968825;28;92976;-84
2022/02/24 01:49:13;;;;;;;4.28;2.35;;;21.40;53.20;;;;;;4965185;28;92859;-85
2022/02/24 01:51:39;;;;;;;4.75;2.72;;;21.40;53.30;;;;;;4967152;28;93310;-84
2022/02/24 01:54:06;;;;;;;4.10;2.38;;;21.40;53.30;;;;;;4967017;28;94823;-85
2022/02/24 01:56:32;;;;;;;4.15;2.50;;;21.40;53.20;;;;;;4968440;28;92866;-84
2022/02/24 01:58:58;;;;;;;4.03;2.50;;;21.40;53.30;;;;;;4968006;28;91854;-84
2022/02/24 02:01:24;;;;;;;3.67;2.00;;;21.40;53.30;;;;;;4968188;28;94160;-83
2022/02/24 02:03:54;;;;;;;4.55;2.35;;;21.40;53.30;;;;;;4967793;28;93604;-84
2022/02/24 02:06:23;;;;;;;3.70;2.38;;;21.40;53.30;;;;;;4968265;28;94028;-85
2022/02/24 02:08:49;;;;;;;3.45;2.13;;;21.40;53.20;;;;;;4967428;28;92580;-83
2022/02/24 02:11:16;;;;;;;3.67;2.10;;;21.40;53.20;;;;;;4966648;28;94026;-84
2022/02/24 02:13:42;;;;;;;4.05;2.20;;;21.30;53.10;;;;;;4967341;28;92447;-84
2022/02/24 02:16:09;;;;;;;3.80;2.25;;;21.40;53.20;;;;;;4968057;28;92683;-83
2022/02/24 02:18:44;;;;;;;3.72;2.13;;;21.30;53.10;;;;;;4968082;28;92136;-85
2022/02/24 02:21:10;;;;;;;3.55;2.30;;;21.30;53.10;;;;;;4968274;28;92963;-83
2022/02/24 02:23:36;;;;;;;4.38;2.30;;;21.40;52.90;;;;;;4966667;28;95061;-84
2022/02/24 02:26:01;;;;;;;4.88;2.08;;;21.40;53.10;;;;;;4966551;28;92493;-84
2022/02/24 02:28:27;;;;;;;3.30;2.00;;;21.30;53.00;;;;;;4968069;28;92858;-84
2022/02/24 02:30:52;;;;;;;3.90;2.35;;;21.30;53.00;;;;;;4967383;28;93926;-85
2022/02/24 02:33:18;;;;;;;3.33;2.13;;;21.30;52.90;;;;;;4966599;28;93295;-83
2022/02/24 02:35:44;;;;;;;3.55;2.20;;;21.30;53.10;;;;;;4967639;28;92529;-84
2022/02/24 02:38:09;;;;;;;3.38;2.00;;;21.30;53.00;;;;;;4966986;28;93211;-82
2022/02/24 02:40:37;;;;;;;3.58;2.00;;;21.30;53.00;;;;;;4967746;28;92365;-83
2022/02/24 02:43:10;;;;;;;3.35;2.00;;;21.30;52.90;;;;;;4967710;28;92761;-82
2022/02/24 02:45:39;;;;;;;2.95;1.90;;;21.30;52.90;;;;;;4967355;28;92429;-85
2022/02/24 02:48:06;;;;;;;;;;;21.30;52.90;;;;;;4967900;28;91955;-84
2022/02/24 02:50:32;;;;;;;3.38;2.05;;;21.30;52.90;;;;;;4968328;28;92746;-82
2022/02/24 02:53:18;;;;;;;4.65;2.53;;;21.30;52.80;;;;;;4968917;28;92143;-82
2022/02/24 02:55:44;;;;;;;3.50;2.17;;;21.30;52.90;;;;;;4966045;28;93381;-83
2022/02/24 02:58:09;;;;;;;3.40;2.00;;;21.20;52.70;;;;;;4966991;28;92973;-84
2022/02/24 03:00:35;;;;;;;3.60;2.10;;;21.20;52.80;;;;;;4966396;28;92942;-84
2022/02/24 03:03:01;;;;;;;5.07;2.30;;;21.30;52.70;;;;;;4966566;28;93799;-84
2022/02/24 03:05:26;;;;;;;3.47;2.03;;;21.20;52.70;;;;;;4966396;28;92840;-83
2022/02/24 03:07:52;;;;;;;4.03;2.20;;;21.30;52.70;;;;;;4967022;28;92523;-83
2022/02/24 03:10:18;;;;;;;3.88;2.20;;;21.30;52.70;;;;;;4965327;28;93194;-83
2022/02/24 03:12:43;;;;;;;3.97;2.10;;;21.20;52.60;;;;;;4966927;28;92776;-83
2022/02/24 03:15:15;;;;;;;2.80;2.03;;;21.20;52.70;;;;;;4966951;28;92824;-82
2022/02/24 03:17:42;;;;;;;2.10;1.75;;;21.20;52.70;;;;;;4966531;28;91970;-81
2022/02/24 03:20:09;;;;;;;3.08;1.88;;;21.20;52.60;;;;;;4965763;28;94683;-82
2022/02/24 03:22:35;;;;;;;3.58;2.53;;;21.20;52.60;;;;;;4966177;28;94766;-83
2022/02/24 03:25:01;;;;;;;3.60;2.08;;;21.20;52.50;;;;;;4966869;28;92406;-84
2022/02/24 03:27:27;;;;;;;2.97;2.15;;;21.20;52.60;;;;;;4966673;28;92063;-83
2022/02/24 03:30:02;;;;;;;2.88;1.88;;;21.20;52.50;;;;;;4964883;28;95408;-83
2022/02/24 03:32:27;;;;;;;2.65;1.75;;;21.20;52.50;;;;;;4967042;28;92497;-81
2022/02/24 03:34:53;;;;;;;2.50;1.90;;;21.20;52.50;;;;;;4965995;28;92412;-83
2022/02/24 03:37:19;;;;;;;2.83;1.85;;;21.20;52.50;;;;;;4965736;28;91889;-85
2022/02/24 03:39:45;;;;;;;3.45;2.08;;;21.20;52.40;;;;;;4967521;28;93119;-84
2022/02/24 03:42:10;;;;;;;3.58;2.00;;;21.20;52.50;;;;;;4967607;28;92433;-84
2022/02/24 03:44:36;;;;;;;3.15;1.90;;;21.20;52.50;;;;;;4966332;28;93612;-83
2022/02/24 03:47:02;;;;;;;3.42;2.13;;;21.10;52.40;;;;;;4965785;28;91975;-83
2022/02/24 03:49:28;;;;;;;3.60;1.83;;;21.10;52.50;;;;;;4966874;28;92637;-85
2022/02/24 03:51:54;;;;;;;2.25;1.88;;;21.10;52.40;;;;;;4966690;28;92442;-85
2022/02/24 03:54:20;;;;;;;3.50;2.22;;;21.20;52.50;;;;;;4967367;28;92949;-83
2022/02/24 03:56:45;;;;;;;3.75;1.80;;;21.20;52.40;;;;;;4967196;28;92529;-83
2022/02/24 03:59:11;;;;;;;3.55;2.25;;;21.10;52.50;;;;;;4966726;28;92708;-81
2022/02/24 04:01:37;;;;;;;2.38;1.88;;;21.10;52.30;;;;;;4965250;28;95092;-83
2022/02/24 04:04:03;;;;;;;3.55;1.92;;;21.10;53.00;;;;;;4965868;28;92478;-83
2022/02/24 04:06:29;;;;;;;3.33;2.03;;;21.10;52.40;;;;;;4966451;28;92654;-82
2022/02/24 04:08:54;;;;;;;3.28;2.00;;;21.10;53.10;;;;;;4966381;28;94512;-83
2022/02/24 04:11:21;;;;;;;3.45;2.28;;;21.10;52.30;;;;;;4966499;28;93059;-83
2022/02/24 04:13:46;;;;;;;2.97;1.73;;;21.10;52.30;;;;;;4967316;28;92522;-83
2022/02/24 04:16:12;;;;;;;3.42;1.92;;;21.10;52.40;;;;;;4966241;28;92363;-84
2022/02/24 04:18:42;;;;;;;3.42;1.85;;;21.10;52.20;;;;;;4966042;28;92887;-84
2022/02/24 04:21:10;;;;;;;2.47;1.88;;;21.10;52.20;;;;;;4967452;28;92464;-83
2022/02/24 04:23:36;;;;;;;3.03;1.80;;;21.10;52.10;;;;;;4969991;28;92614;-84
2022/02/24 04:26:01;;;;;;;3.30;2.03;;;21.10;52.50;;;;;;4970841;28;92043;-83
2022/02/24 04:28:27;;;;;;;3.38;1.95;;;21.10;52.10;;;;;;4969951;28;92723;-83
2022/02/24 04:30:53;;;;;;;3.67;1.90;;;21.00;52.30;;;;;;4970210;28;92716;-84
2022/02/24 04:33:18;;;;;;;3.15;2.00;;;21.10;52.20;;;;;;4969874;28;93532;-83
2022/02/24 04:35:44;;;;;;;2.90;1.98;;;21.10;52.30;;;;;;4969060;28;92306;-83
2022/02/24 04:38:09;;;;;;;4.30;2.15;;;21.10;52.20;;;;;;4969268;28;93098;-83
2022/02/24 04:40:35;;;;;;;3.15;1.88;;;21.00;52.00;;;;;;4969593;28;92320;-84
2022/02/24 04:43:01;;;;;;;3.60;2.20;;;21.00;52.00;;;;;;4969467;28;92186;-83
2022/02/24 04:45:27;;;;;;;3.17;2.03;;;21.10;52.10;;;;;;4968317;28;92997;-83
2022/02/24 04:47:52;;;;;;;2.92;1.80;;;21.00;52.00;;;;;;4967193;28;95633;-81
2022/02/24 04:50:18;;;;;;;2.55;1.77;;;21.00;51.90;;;;;;4969879;28;92231;-82
2022/02/24 04:52:43;;;;;;;3.72;1.80;;;21.00;52.10;;;;;;4970598;28;93133;-82
2022/02/24 04:55:09;;;;;;;3.75;2.03;;;21.00;52.10;;;;;;4969290;28;92695;-82
2022/02/24 04:57:35;;;;;;;4.15;2.10;;;21.00;52.00;;;;;;4969218;28;94142;-84
2022/02/24 05:00:05;;;;;;;2.90;1.90;;;21.00;52.00;;;;;;4983439;28;97037;-84
2022/02/24 05:02:30;;;;;;;2.72;2.03;;;21.00;51.90;;;;;;4969363;28;92724;-84
2022/02/24 05:05:03;;;;;;;2.63;1.90;;;21.00;52.00;;;;;;4969401;28;92171;-82
2022/02/24 05:07:29;;;;;;;2.80;1.90;;;21.00;51.90;;;;;;4967280;28;92606;-84
2022/02/24 05:09:54;;;;;;;3.47;1.92;;;21.00;51.80;;;;;;4969317;28;92648;-84
2022/02/24 05:12:20;;;;;;;2.60;1.70;;;21.00;51.90;;;;;;4969459;28;92453;-83
2022/02/24 05:14:46;;;;;;;2.70;1.90;;;21.00;51.90;;;;;;4970376;28;91935;-83
2022/02/24 05:17:11;;;;;;;3.67;1.95;;;21.00;51.70;;;;;;4968899;28;93094;-83
2022/02/24 05:19:37;;;;;;;2.75;2.08;;;20.90;51.70;;;;;;4968593;28;92959;-83
2022/02/24 05:22:03;;;;;;;2.55;1.80;;;21.00;51.60;;;;;;4968896;28;93714;-84
2022/02/24 05:24:28;;;;;;;2.97;1.73;;;21.00;51.70;;;;;;4967380;28;92467;-83
2022/02/24 05:26:54;;;;;;;2.63;1.77;;;21.00;51.80;;;;;;4983355;28;95691;-84
2022/02/24 05:29:20;;;;;;;4.22;2.10;;;21.00;51.60;;;;;;4967829;28;93254;-82
2022/02/24 05:31:45;;;;;;;2.60;1.77;;;20.90;51.60;;;;;;4967359;28;92605;-82
2022/02/24 05:34:11;;;;;;;4.07;1.95;;;20.90;51.60;;;;;;4968267;28;92942;-82
2022/02/24 05:36:38;;;;;;;2.20;1.75;;;20.90;51.50;;;;;;4968513;28;92452;-82
2022/02/24 05:39:04;;;;;;;3.78;2.00;;;20.90;51.50;;;;;;4968775;28;92758;-84
2022/02/24 05:41:30;;;;;;;4.50;2.08;;;20.90;51.50;;;;;;4966906;28;92378;-82
2022/02/24 05:43:55;;;;;;;3.15;1.90;;;20.90;51.40;;;;;;4968534;28;92852;-82
2022/02/24 05:46:21;;;;;;;4.15;1.80;;;20.90;51.60;;;;;;4967864;28;95225;-82
2022/02/24 05:48:47;;;;;;;3.33;1.98;;;20.90;51.50;;;;;;4967778;28;93202;-83
2022/02/24 05:51:13;;;;;;;3.05;1.77;;;20.90;51.40;;;;;;4967415;28;92584;-82
2022/02/24 05:53:48;;;;;;;3.30;1.63;;;20.90;51.40;;;;;;4969138;28;93325;-83
2022/02/24 05:56:14;;;;;;;3.40;2.10;;;20.90;51.50;;;;;;4968625;28;92629;-84
2022/02/24 05:58:39;;;;;;;2.50;1.70;;;20.90;51.40;;;;;;4968349;28;92392;-82
2022/02/24 06:01:05;;;;;;;3.50;1.83;;;20.90;51.40;;;;;;4967214;28;92013;-82
2022/02/24 06:03:31;;;;;;;4.25;1.90;;;20.90;51.30;;;;;;4968744;28;91983;-82
2022/02/24 06:05:57;;;;;;;2.70;1.90;;;20.90;51.40;;;;;;4967427;28;93131;-83
2022/02/24 06:08:24;;;;;;;2.35;1.58;;;20.90;51.40;;;;;;4968050;28;92721;-81
2022/02/24 06:10:50;;;;;;;2.55;1.65;;;20.90;51.40;;;;;;4967349;28;93782;-83
2022/02/24 06:13:16;;;;;;;2.40;1.70;;;20.90;51.30;;;;;;4966975;28;92051;-83
2022/02/24 06:15:41;;;;;;;3.38;1.85;;;20.90;51.30;;;;;;4968712;28;93131;-83
2022/02/24 06:18:11;;;;;;;3.08;2.05;;;20.80;51.10;;;;;;4968095;28;92916;-84
2022/02/24 06:20:37;;;;;;;3.20;1.80;;;20.90;51.20;;;;;;4968711;28;92742;-84
2022/02/24 06:23:03;;;;;;;3.00;1.67;;;20.90;51.20;;;;;;4968131;28;93097;-83
2022/02/24 06:25:29;;;;;;;2.50;1.88;;;20.90;51.20;;;;;;4968040;28;93027;-82
2022/02/24 06:27:54;;;;;;;2.78;1.70;;;20.90;51.10;;;;;;4968474;28;93250;-83
2022/02/24 06:30:20;;;;;;;3.03;1.73;;;20.80;51.10;;;;;;4967820;28;92483;-84
2022/02/24 06:32:46;;;;;;;2.63;1.50;;;20.80;51.20;;;;;;4966758;28;92424;-83
2022/02/24 06:35:14;;;;;;;2.22;1.70;;;20.80;51.10;;;;;;4965344;28;93945;-84
2022/02/24 06:37:43;;;;;;;3.35;1.90;;;20.80;51.10;;;;;;4966723;28;93321;-82
2022/02/24 06:40:13;;;;;;;3.50;1.60;;;20.80;51.20;;;;;;4966315;28;92072;-82
2022/02/24 06:42:39;;;;;;;3.72;2.13;;;20.80;51.00;;;;;;4967546;28;92714;-83
2022/02/24 06:45:06;;;;;;;3.25;1.70;;;20.80;51.00;;;;;;4967094;28;93183;-81
2022/02/24 06:47:32;;;;;;;2.78;1.75;;;20.80;51.10;;;;;;4966761;28;93028;-83
2022/02/24 06:49:57;;;;;;;2.88;1.98;;;20.80;51.10;;;;;;4967255;28;92352;-83
2022/02/24 06:52:23;;;;;;;3.45;1.70;;;20.80;51.20;;;;;;4967847;28;91862;-83
2022/02/24 06:54:49;;;;;;;2.97;1.63;;;20.80;51.10;;;;;;4964534;28;94244;-82
2022/02/24 06:57:16;;;;;;;3.90;2.10;;;20.80;51.10;;;;;;4965156;28;95232;-82
2022/02/24 06:59:41;;;;;;;2.78;1.80;;;20.80;51.10;;;;;;4967077;28;93755;-84
2022/02/24 07:02:08;;;;;;;2.20;1.42;;;20.80;51.10;;;;;;4965984;28;93152;-82
2022/02/24 07:04:34;;;;;;;2.50;1.83;;;20.80;51.10;;;;;;4967135;28;93182;-82
2022/02/24 07:07:00;;;;;;;2.40;1.55;;;20.80;51.10;;;;;;4967340;28;92463;-83
2022/02/24 07:09:26;;;;;;;2.40;1.70;;;20.80;51.00;;;;;;4967747;28;93114;-83
2022/02/24 07:11:52;;;;;;;2.20;1.50;;;20.80;50.90;;;;;;4967356;28;92718;-82
2022/02/24 07:14:20;;;;;;;2.63;1.67;;;20.80;51.00;;;;;;4964207;28;95076;-83
2022/02/24 07:16:55;;;;;;;4.07;1.87;;;20.80;51.00;;;;;;4965043;28;94061;-82
2022/02/24 07:19:21;;;;;;;2.50;1.63;;;20.80;50.30;;;;;;4982671;28;92719;-84
2022/02/24 07:21:46;;;;;;;2.72;1.75;;;20.80;50.70;;;;;;4967202;28;91977;-82
2022/02/24 07:24:12;;;;;;;8.23;2.55;;;20.80;50.80;;;;;;4980678;28;97460;-81
2022/02/24 07:26:38;;;;;;;4.82;2.53;;;20.80;51.00;;;;;;4966931;28;93109;-82
2022/02/24 07:29:03;;;;;;;3.97;2.40;;;20.90;51.30;;;;;;4969302;28;92379;-82
2022/02/24 07:31:29;;;;;;;4.13;2.10;;;20.90;51.30;;;;;;4966861;28;92874;-82
2022/02/24 07:33:55;;;;;;;4.78;2.15;;;20.90;51.70;;;;;;4966832;28;92971;-82
2022/02/24 07:36:21;;;;;;;4.60;2.60;;;20.90;52.10;;;;;;4965683;28;92822;-82
2022/02/24 07:38:46;;;;;;;6.90;2.50;;;21.00;51.90;;;;;;4967723;28;92627;-81
2022/02/24 07:41:12;;;;;;;6.15;2.45;;;21.00;52.10;;;;;;4969290;28;92308;-80
2022/02/24 07:43:38;;;;;;;5.63;2.28;;;21.00;51.90;;;;;;4969432;28;92784;-80
2022/02/24 07:46:04;;;;;;;5.75;2.30;;;21.10;52.30;;;;;;4968088;28;92631;-82
2022/02/24 07:48:29;;;;;;;5.07;2.40;;;21.10;52.10;;;;;;4967581;28;93334;-82
2022/02/24 07:50:55;;;;;;;7.72;2.70;;;21.10;52.30;;;;;;4981987;28;92360;-82
2022/02/24 07:53:24;;;;;;;7.25;2.28;;;21.10;52.60;;;;;;4964051;28;92752;-81
2022/02/24 07:56:00;;;;;;;5.90;2.60;;;21.20;52.60;;;;;;4967452;28;93235;-80
2022/02/24 07:58:25;;;;;;;4.22;1.92;;;21.10;52.50;;;;;;4970187;28;92335;-81
2022/02/24 08:00:51;;;;;;;4.85;2.30;;;21.10;52.50;;;;;;4969638;28;93249;-80
2022/02/24 08:03:17;;;;;;;6.70;1.75;;;21.10;52.60;;;;;;4969194;28;92825;-80
2022/02/24 08:05:42;;;;;;;8.48;2.80;;;21.10;52.70;;;;;;4932576;28;92710;-81
2022/02/24 08:08:08;;;;;;;7.00;2.70;;;21.10;53.00;;;;;;4969693;28;92441;-83
2022/02/24 08:10:34;;;;;;;8.63;3.13;;;21.20;53.10;;;;;;4969787;28;92599;-81
2022/02/24 08:13:01;;;;;;;8.35;2.63;;;21.20;52.90;;;;;;4965809;28;95298;-82
2022/02/24 08:15:26;;;;;;;6.03;2.72;;;21.10;53.10;;;;;;4965711;28;93688;-83
2022/02/24 08:17:52;;;;;;;7.07;2.70;;;21.20;53.30;;;;;;4967192;28;92053;-82
2022/02/24 08:20:18;;;;;;;5.18;2.28;;;21.10;53.30;;;;;;4969070;28;92552;-81
2022/02/24 08:22:45;;;;;;;6.90;3.38;;;21.20;53.40;;;;;;4969500;28;93218;-80
2022/02/24 08:25:16;;;;;;;7.88;3.15;;;21.20;53.40;;;;;;4968271;28;92718;-79
2022/02/24 08:27:42;;;;;;;10.93;3.75;;;21.20;53.20;;;;;;4984417;28;92945;-82
2022/02/24 08:30:25;;;;;;;18.48;5.55;;;21.20;53.10;;;;;;4967566;28;92057;-79
2022/02/24 08:32:52;;;;;;;13.02;3.78;;;21.10;52.10;;;;;;4968936;28;92720;-80
2022/02/24 08:35:19;;;;;;;15.45;3.55;;;21.20;52.70;;;;;;4968436;28;92980;-81
2022/02/24 08:37:49;;;;;;;12.65;3.72;;;21.20;53.20;;;;;;4969499;28;93419;-80
2022/02/24 08:40:20;;;;;;;13.52;4.50;;;21.20;53.30;;;;;;4969681;28;92434;-80
2022/02/24 08:42:46;;;;;;;31.88;8.15;;;21.20;53.40;;;;;;4967330;28;95692;-81
2022/02/24 08:45:12;;;;;;;24.30;6.88;;;21.20;51.40;;;;;;4968166;28;93235;-83
2022/02/24 08:47:41;;;;;;;17.38;5.60;;;21.20;51.90;;;;;;4968722;28;92445;-80
2022/02/24 08:50:09;;;;;;;17.77;5.28;;;21.20;52.60;;;;;;4968795;28;92220;-81
2022/02/24 08:52:35;;;;;;;24.42;7.18;;;21.20;52.70;;;;;;4969475;28;93213;-82
2022/02/24 08:55:00;;;;;;;20.45;6.15;;;21.20;52.10;;;;;;4968976;28;92247;-82
2022/02/24 08:57:26;;;;;;;27.55;7.10;;;21.20;52.30;;;;;;4969600;28;93227;-82
2022/02/24 08:59:52;;;;;;;22.58;6.65;;;21.20;51.80;;;;;;4983335;28;92937;-80
2022/02/24 09:02:18;;;;;;;20.30;5.90;;;21.30;56.80;;;;;;4966860;28;93529;-81
2022/02/24 09:04:51;;;;;;;20.80;5.80;;;21.20;52.80;;;;;;4966634;28;93242;-83
2022/02/24 09:07:16;;;;;;;20.60;5.53;;;21.20;52.90;;;;;;4965190;28;92990;-80
2022/02/24 09:09:42;;;;;;;21.50;6.65;;;21.20;52.70;;;;;;4969170;28;93456;-82
2022/02/24 09:12:11;;;;;;;26.35;6.95;;;21.30;53.20;;;;;;4968783;28;92858;-81
2022/02/24 09:14:37;;;;;;;29.57;9.97;;;21.30;53.50;;;;;;4968505;28;92359;-80
2022/02/24 09:17:03;;;;;;;67.85;20.45;;;21.30;54.40;;;;;;4968549;28;92491;-81
2022/02/24 09:19:30;;;;;;;32.22;9.95;;;21.30;54.20;;;;;;4968585;28;91694;-82
2022/02/24 09:21:56;;;;;;;32.97;9.70;;;21.40;53.90;;;;;;4969240;28;92814;-82
2022/02/24 09:24:22;;;;;;;33.38;8.82;;;21.40;54.00;;;;;;4967847;28;92493;-82
2022/02/24 09:26:48;;;;;;;34.42;10.20;;;21.40;53.70;;;;;;4968305;28;94789;-82
2022/02/24 09:29:14;;;;;;;34.05;10.45;;;21.40;54.10;;;;;;4968516;28;92872;-81
2022/02/24 09:31:41;;;;;;;32.75;10.25;;;21.40;54.10;;;;;;4966700;28;92626;-80
2022/02/24 09:34:07;;;;;;;32.97;10.70;;;21.40;53.80;;;;;;4967530;28;93056;-82
2022/02/24 09:36:33;;;;;;;34.08;9.80;;;21.40;54.20;;;;;;4967756;28;91971;-81
2022/02/24 09:38:59;;;;;;;29.83;9.02;;;21.40;54.60;;;;;;4968619;28;92115;-82
2022/02/24 09:41:25;;;;;;;27.65;9.05;;;21.40;54.60;;;;;;4967462;28;92744;-82
2022/02/24 09:43:54;;;;;;;28.15;9.73;;;21.40;54.70;;;;;;4968223;28;92685;-82
2022/02/24 09:46:26;;;;;;;29.45;10.55;;;21.40;55.10;;;;;;4970004;28;92150;-83
2022/02/24 09:48:55;;;;;;;26.50;9.18;;;21.40;54.60;;;;;;4967802;28;92673;-80
2022/02/24 09:51:21;;;;;;;60.85;7.70;;;21.40;54.50;;;;;;4967193;28;93507;-82
2022/02/24 09:53:48;;;;;;;35.95;8.00;;;21.40;48.70;;;;;;4967893;28;93631;-79
2022/02/24 09:56:23;;;;;;;21.00;8.25;;;21.20;51.30;;;;;;4969531;28;92830;-79
2022/02/24 09:58:50;;;;;;;25.17;8.73;;;21.30;52.80;;;;;;4968734;28;91991;-80
2022/02/24 10:01:17;;;;;;;28.27;8.55;;;21.30;53.60;;;;;;4967565;28;93103;-80
2022/02/24 10:03:52;;;;;;;24.33;7.10;;;21.30;53.90;;;;;;4967601;28;92787;-81
2022/02/24 10:06:18;;;;;;;28.77;8.80;;;21.30;52.50;;;;;;4977266;28;93225;-82
2022/02/24 10:08:46;;;;;;;30.23;9.15;;;21.30;52.50;;;;;;4974741;28;91343;-79
2022/02/24 10:11:30;;;;;;;25.25;8.55;;;21.30;53.40;;;;;;4969141;28;93193;-80
2022/02/24 10:14:09;;;;;;;24.73;8.57;;;21.30;53.60;;;;;;4969161;28;92724;-79
2022/02/24 10:16:56;;;;;;;25.58;8.30;;;21.30;52.50;;;;;;4970424;28;93995;-80
2022/02/24 10:19:26;;;;;;;25.90;8.13;;;21.30;53.30;;;;;;4969084;28;92542;-80
2022/02/24 10:22:10;;;;;;;27.27;8.20;;;21.30;53.50;;;;;;4968861;28;93545;-80
2022/02/24 10:24:37;;;;;;;26.92;8.10;;;21.40;68.30;;;;;;4968139;28;93145;-79
2022/02/24 10:27:22;;;;;;;24.55;7.88;;;21.30;69.00;;;;;;4968568;28;91942;-78
2022/02/24 10:30:13;;;;;;;25.40;7.55;;;21.30;64.90;;;;;;4967652;28;92490;-78
2022/02/24 10:32:46;;;;;;;21.08;6.38;;;21.30;59.80;;;;;;4969557;28;93181;-80
2022/02/24 10:35:25;;;;;;;22.02;7.00;;;21.30;59.80;;;;;;4967223;28;96111;-79
2022/02/24 10:38:02;;;;;;;18.30;5.88;;;21.30;59.40;;;;;;4969136;28;92801;-80
2022/02/24 10:40:31;;;;;;;18.80;6.40;;;21.30;53.70;;;;;;4968363;28;92590;-79
2022/02/24 10:43:16;;;;;;;12.32;5.30;;;21.20;52.80;;;;;;4966519;28;96551;-80
2022/02/24 10:45:58;;;;;;;16.38;4.78;;;21.20;54.20;;;;;;4968523;28;93157;-79
2022/02/24 10:48:25;;;;;;;20.60;6.93;;;21.20;53.60;;;;;;4969545;28;92646;-80
2022/02/24 10:50:53;;;;;;;24.58;5.88;;;21.20;55.70;;;;;;4968878;28;92770;-79
2022/02/24 10:53:20;;;;;;;20.92;5.72;;;21.20;55.10;;;;;;4968592;28;92800;-79
2022/02/24 10:55:58;;;;;;;22.60;6.18;;;21.20;55.10;;;;;;4968585;28;92759;-79
2022/02/24 10:58:25;;;;;;;16.05;5.13;;;21.30;55.00;;;;;;4970229;28;92597;-79
2022/02/24 11:01:25;;;;;;;16.40;5.22;;;21.20;53.30;;;;;;4969660;28;91367;-80
2022/02/24 11:03:56;;;;;;;18.90;5.72;;;21.30;54.50;;;;;;4968596;28;92972;-79
2022/02/24 11:06:24;;;;;;;13.95;5.18;;;21.20;53.80;;;;;;4966814;28;92979;-79
2022/02/24 11:08:51;;;;;;;14.57;4.28;;;21.20;54.00;;;;;;4968362;28;93680;-80
2022/02/24 11:11:29;;;;;;;13.50;4.25;;;21.30;54.60;;;;;;4969321;28;93093;-81
2022/02/24 11:13:57;;;;;;;15.13;4.90;;;21.20;52.30;;;;;;4968582;28;92705;-79
2022/02/24 11:16:24;;;;;;;13.07;4.10;;;21.30;52.60;;;;;;4967084;28;93354;-79
2022/02/24 11:18:52;;;;;;;14.15;4.78;;;21.30;52.80;;;;;;4967383;28;92155;-80
2022/02/24 11:21:26;;;;;;;17.42;4.80;;;21.30;53.40;;;;;;4967918;28;92809;-80
2022/02/24 11:23:53;;;;;;;17.55;5.32;;;21.30;53.90;;;;;;4966462;28;93248;-79
2022/02/24 11:26:22;;;;;;;14.90;4.75;;;21.30;56.50;;;;;;4966815;28;91445;-82
2022/02/24 11:28:58;;;;;;;17.15;4.72;;;21.30;55.80;;;;;;4967746;28;93066;-82
2022/02/24 11:31:30;;;;;;;18.13;5.30;;;21.30;57.90;;;;;;4970587;28;92762;-85
2022/02/24 11:33:56;;;;;;;15.85;4.55;;;21.30;55.80;;;;;;4969271;28;96395;-80
2022/02/24 11:36:22;;;;;;;15.95;4.93;;;21.30;56.60;;;;;;4969495;28;93353;-80
2022/02/24 11:39:23;;;;;;;13.55;4.80;;;21.30;54.60;;;;;;4954521;28;92591;-81
2022/02/24 11:41:48;;;;;;;13.82;4.60;;;21.30;57.90;;;;;;4986092;28;92235;-82
2022/02/24 11:44:35;;;;;;;10.73;4.30;;;21.30;55.80;;;;;;4970727;28;93022;-83
2022/02/24 11:47:04;;;;;;;8.68;3.78;;;21.30;52.30;;;;;;4971146;28;92714;-81
2022/02/24 11:49:56;;;;;;;9.90;3.83;;;21.30;49.90;;;;;;4968915;28;92685;-82
2022/02/24 11:52:43;;;;;;;12.25;3.83;;;21.30;54.10;;;;;;4970779;28;91674;-81
2022/02/24 11:55:39;;;;;;;17.05;4.22;;;21.20;53.60;;;;;;4969784;28;92782;-83
2022/02/24 11:58:30;;;;;;;14.88;4.78;;;21.30;54.70;;;;;;4969306;28;93084;-82
2022/02/24 12:01:23;;;;;;;12.65;4.32;;;21.30;53.00;;;;;;4969519;28;93603;-80
2022/02/24 12:04:15;;;;;;;13.60;4.72;;;21.30;53.80;;;;;;4970147;28;92516;-81
2022/02/24 12:06:42;;;;;;;12.68;4.45;;;21.30;54.20;;;;;;4970219;28;93462;-81
2022/02/24 12:09:14;;;;;;;10.10;4.10;;;21.30;53.10;;;;;;4969951;28;92481;-80
2022/02/24 12:11:41;;;;;;;11.98;4.22;;;21.30;53.90;;;;;;4969771;28;93016;-81
2022/02/24 12:14:22;;;;;;;13.00;4.32;;;21.30;57.30;;;;;;4969309;28;92206;-80
2022/02/24 12:17:05;;;;;;;11.63;3.90;;;21.30;57.90;;;;;;4970410;28;93801;-80
2022/02/24 12:19:58;;;;;;;15.68;4.60;;;21.40;58.30;;;;;;4967407;28;95117;-81
2022/02/24 12:22:47;;;;;;;13.85;3.88;;;21.30;61.00;;;;;;4968332;28;92376;-80
2022/02/24 12:25:33;;;;;;;17.25;4.63;;;21.30;57.90;;;;;;4968799;28;92972;-78
2022/02/24 12:28:04;;;;;;;15.18;4.68;;;21.30;55.60;;;;;;4969183;28;94656;-79
2022/02/24 12:30:41;;;;;;;19.08;4.10;;;21.30;55.00;;;;;;4969336;28;94110;-78
2022/02/24 12:33:09;;;;;;;14.90;4.28;;;21.30;55.60;;;;;;4970238;28;92395;-79
2022/02/24 12:35:40;;;;;;;16.25;4.28;;;21.30;56.00;;;;;;4969471;28;92858;-78
2022/02/24 12:38:07;;;;;;;9.70;3.88;;;21.30;55.80;;;;;;4968460;28;92765;-80
2022/02/24 12:40:34;;;;;;;10.60;3.38;;;21.30;56.00;;;;;;4969012;28;92382;-79
2022/02/24 12:43:03;;;;;;;13.27;3.80;;;21.30;55.70;;;;;;4968608;28;92878;-80
2022/02/24 12:45:31;;;;;;;15.45;3.92;;;21.30;55.90;;;;;;4969634;28;91656;-80
2022/02/24 12:48:01;;;;;;;11.25;4.03;;;21.30;55.70;;;;;;4969057;28;94981;-82
2022/02/24 12:50:36;;;;;;;14.90;4.07;;;21.30;55.50;;;;;;4969379;28;92882;-80